Stk-1020 — UCYT — position and weather

sailwx.info

Track history (hours):
 
Tides and Currents Weather Stations Pressure Air Temp Water Temp Dewpoint Dewpoint Depression Visibility Wind Speed Wind Dir Waves Ship Positions

Stk-1020

Last reported at 2015-Aug-20 00:13 UTC. Time now 2015-Sep-02 10:35 UTC.
Position N 59°53' E 030°27'.
Warning: this ship's position is 13 days out of date.

Length 82 m; draft 2.4 m.

Type: Cargo ship. MMSI: 273362200.

Date/timePositionNaut miles runAvg speedWind from/ knotsBaromVisibWave heightAir tempDewpointWater temp
2015-Aug-20 00:13N 59°53' E 030°27'2 3.6
2015-Aug-19 23:33N 59°55' E 030°24'4 3.8
2015-Aug-19 22:33N 59°56' E 030°17'3 3.3
2015-Aug-19 21:33N 59°53' E 030°12'1 0.7
2015-Aug-19 20:29N 59°53' E 030°14'0 0.0
2015-Aug-19 19:33N 59°53' E 030°14'0 0.0
2015-Aug-19 18:33N 59°53' E 030°14'0 0.0
2015-Aug-19 17:33N 59°53' E 030°14'0 0.0
2015-Aug-19 16:33N 59°53' E 030°14'0 0.0
2015-Aug-19 15:33N 59°53' E 030°14'0 0.0
2015-Aug-19 14:33N 59°53' E 030°14'0 0.0
2015-Aug-19 13:33N 59°53' E 030°14'0 0.0
2015-Aug-19 12:34N 59°53' E 030°14'0 0.0
2015-Aug-19 11:33N 59°53' E 030°14'0 0.0
2015-Aug-19 10:33N 59°53' E 030°14'0 0.0
2015-Aug-19 09:33N 59°53' E 030°14'0 0.0
2015-Aug-19 08:33N 59°53' E 030°14'0 0.0
2015-Aug-19 07:33N 59°53' E 030°14'0 0.0
2015-Aug-19 06:33N 59°53' E 030°14'0 0.0
2015-Aug-19 05:33N 59°53' E 030°14'0 0.0
2015-Aug-19 04:33N 59°53' E 030°14'0 0.0
2015-Aug-19 03:33N 59°53' E 030°14'0 0.0
2015-Aug-19 02:33N 59°53' E 030°14'0 0.0
2015-Aug-19 01:33N 59°53' E 030°14'0 0.0
2015-Aug-19 00:33N 59°53' E 030°14'0 0.0
2015-Aug-18 23:33N 59°53' E 030°14'0 0.0
2015-Aug-18 22:33N 59°53' E 030°14'0 0.0
2015-Aug-18 21:33N 59°53' E 030°14'0 0.0
2015-Aug-18 20:33N 59°53' E 030°14'0 0.0
2015-Aug-18 19:33N 59°53' E 030°14'0 0.0
2015-Aug-18 18:33N 59°53' E 030°14'0 0.0
2015-Aug-18 17:33N 59°53' E 030°14'0 0.0
2015-Aug-18 16:33N 59°53' E 030°14'0 0.0
2015-Aug-18 15:33N 59°53' E 030°14'0 0.0
2015-Aug-18 14:33N 59°53' E 030°14'0 0.0
2015-Aug-18 13:33N 59°53' E 030°14'0 0.0
2015-Aug-18 12:33N 59°53' E 030°14'0 0.0
2015-Aug-18 11:33N 59°53' E 030°14'0 0.0
2015-Aug-18 10:33N 59°53' E 030°14'0 0.0
2015-Aug-18 09:33N 59°53' E 030°14'0 0.0
2015-Aug-18 08:33N 59°53' E 030°14'0 0.0
2015-Aug-18 07:33N 59°53' E 030°14'0 0.0
2015-Aug-18 06:33N 59°53' E 030°14'0 0.0
2015-Aug-18 05:33N 59°53' E 030°14'0 0.0
2015-Aug-18 04:33N 59°53' E 030°14'0 0.0
2015-Aug-18 04:11N 59°53' E 030°14'0 0.0
2015-Aug-18 04:08N 59°53' E 030°14'0 0.0
2015-Aug-18 03:33N 59°53' E 030°14'0 0.0
2015-Aug-18 02:33N 59°53' E 030°14'0 0.0
2015-Aug-18 01:33N 59°53' E 030°14'0 0.0
2015-Aug-18 00:33N 59°53' E 030°14'0 0.0
2015-Aug-17 23:33N 59°53' E 030°14'0 0.0
2015-Aug-17 22:33N 59°53' E 030°14'0 0.0
2015-Aug-17 21:33N 59°53' E 030°14'0 0.0
2015-Aug-17 20:33N 59°53' E 030°14'0 0.0
2015-Aug-17 19:33N 59°53' E 030°14'0 0.0
2015-Aug-17 18:33N 59°53' E 030°14'0 0.0
2015-Aug-17 17:33N 59°53' E 030°14'0 0.0
2015-Aug-17 16:33N 59°53' E 030°14'0 0.5
2015-Aug-17 15:33N 59°53' E 030°13'7 7.2
2015-Aug-17 14:33N 59°55' E 029°60'  
2015-Aug-12 06:21N 60°01' E 029°23'0 0.0
2015-Aug-12 05:28N 60°01' E 029°23'0 0.0
2015-Aug-12 04:31N 60°01' E 029°23'0 0.0
2015-Aug-12 02:27N 60°01' E 029°23'0 0.0
2015-Aug-12 00:31N 60°01' E 029°23'0 0.0
2015-Aug-11 23:17N 60°01' E 029°23'0 0.0
2015-Aug-11 22:32N 60°01' E 029°23'0 0.0
2015-Aug-11 21:33N 60°01' E 029°23'0 0.0
2015-Aug-11 06:22N 60°01' E 029°23'0 0.0
2015-Aug-11 05:11N 60°01' E 029°23'0 0.0
2015-Aug-11 04:17N 60°01' E 029°23'0 0.0
2015-Aug-11 03:33N 60°01' E 029°23'0 0.0
2015-Aug-11 02:33N 60°01' E 029°23'0 0.0
2015-Aug-11 01:31N 60°01' E 029°23'0 0.0
2015-Aug-11 00:32N 60°01' E 029°23'0 0.0
2015-Aug-10 23:33N 60°01' E 029°23'0 0.0
2015-Aug-10 22:12N 60°01' E 029°23'0 0.0
2015-Aug-10 21:28N 60°01' E 029°23'0 0.0
2015-Aug-10 08:33N 60°01' E 029°23'0 0.0
2015-Aug-10 07:31N 60°01' E 029°23'0 0.0
2015-Aug-10 04:33N 60°01' E 029°23'0 0.0
2015-Aug-10 03:31N 60°01' E 029°23'  
Track history (hours):
 
Tides and Currents Weather Stations Pressure Air Temp Water Temp Dewpoint Dewpoint Depression Visibility Wind Speed Wind Dir Waves Ship Positions

Stk-1020

Last reported at 2015-Aug-20 00:13 UTC. Time now 2015-Sep-02 10:35 UTC.
Position N 59°53' E 030°27'.
Warning: this ship's position is 13 days out of date.

Length 82 m; draft 2.4 m.

Type: Cargo ship. MMSI: 273362200.

Date/timePositionNaut miles runAvg speedWind from/ knotsBaromVisibWave heightAir tempDewpointWater temp
2015-Aug-20 00:13N 59°53' E 030°27'2 3.6
2015-Aug-19 23:33N 59°55' E 030°24'4 3.8
2015-Aug-19 22:33N 59°56' E 030°17'3 3.3
2015-Aug-19 21:33N 59°53' E 030°12'1 0.7
2015-Aug-19 20:29N 59°53' E 030°14'0 0.0
2015-Aug-19 19:33N 59°53' E 030°14'0 0.0
2015-Aug-19 18:33N 59°53' E 030°14'0 0.0
2015-Aug-19 17:33N 59°53' E 030°14'0 0.0
2015-Aug-19 16:33N 59°53' E 030°14'0 0.0
2015-Aug-19 15:33N 59°53' E 030°14'0 0.0
2015-Aug-19 14:33N 59°53' E 030°14'0 0.0
2015-Aug-19 13:33N 59°53' E 030°14'0 0.0
2015-Aug-19 12:34N 59°53' E 030°14'0 0.0
2015-Aug-19 11:33N 59°53' E 030°14'0 0.0
2015-Aug-19 10:33N 59°53' E 030°14'0 0.0
2015-Aug-19 09:33N 59°53' E 030°14'0 0.0
2015-Aug-19 08:33N 59°53' E 030°14'0 0.0
2015-Aug-19 07:33N 59°53' E 030°14'0 0.0
2015-Aug-19 06:33N 59°53' E 030°14'0 0.0
2015-Aug-19 05:33N 59°53' E 030°14'0 0.0
2015-Aug-19 04:33N 59°53' E 030°14'0 0.0
2015-Aug-19 03:33N 59°53' E 030°14'0 0.0
2015-Aug-19 02:33N 59°53' E 030°14'0 0.0
2015-Aug-19 01:33N 59°53' E 030°14'0 0.0
2015-Aug-19 00:33N 59°53' E 030°14'0 0.0
2015-Aug-18 23:33N 59°53' E 030°14'0 0.0
2015-Aug-18 22:33N 59°53' E 030°14'0 0.0
2015-Aug-18 21:33N 59°53' E 030°14'0 0.0
2015-Aug-18 20:33N 59°53' E 030°14'0 0.0
2015-Aug-18 19:33N 59°53' E 030°14'0 0.0
2015-Aug-18 18:33N 59°53' E 030°14'0 0.0
2015-Aug-18 17:33N 59°53' E 030°14'0 0.0
2015-Aug-18 16:33N 59°53' E 030°14'0 0.0
2015-Aug-18 15:33N 59°53' E 030°14'0 0.0
2015-Aug-18 14:33N 59°53' E 030°14'0 0.0
2015-Aug-18 13:33N 59°53' E 030°14'0 0.0
2015-Aug-18 12:33N 59°53' E 030°14'0 0.0
2015-Aug-18 11:33N 59°53' E 030°14'0 0.0
2015-Aug-18 10:33N 59°53' E 030°14'0 0.0
2015-Aug-18 09:33N 59°53' E 030°14'0 0.0
2015-Aug-18 08:33N 59°53' E 030°14'0 0.0
2015-Aug-18 07:33N 59°53' E 030°14'0 0.0
2015-Aug-18 06:33N 59°53' E 030°14'0 0.0
2015-Aug-18 05:33N 59°53' E 030°14'0 0.0
2015-Aug-18 04:33N 59°53' E 030°14'0 0.0
2015-Aug-18 04:11N 59°53' E 030°14'0 0.0
2015-Aug-18 04:08N 59°53' E 030°14'0 0.0
2015-Aug-18 03:33N 59°53' E 030°14'0 0.0
2015-Aug-18 02:33N 59°53' E 030°14'0 0.0
2015-Aug-18 01:33N 59°53' E 030°14'0 0.0
2015-Aug-18 00:33N 59°53' E 030°14'0 0.0
2015-Aug-17 23:33N 59°53' E 030°14'0 0.0
2015-Aug-17 22:33N 59°53' E 030°14'0 0.0
2015-Aug-17 21:33N 59°53' E 030°14'0 0.0
2015-Aug-17 20:33N 59°53' E 030°14'0 0.0
2015-Aug-17 19:33N 59°53' E 030°14'0 0.0
2015-Aug-17 18:33N 59°53' E 030°14'0 0.0
2015-Aug-17 17:33N 59°53' E 030°14'0 0.0
2015-Aug-17 16:33N 59°53' E 030°14'0 0.5
2015-Aug-17 15:33N 59°53' E 030°13'7 7.2
2015-Aug-17 14:33N 59°55' E 029°60'  
2015-Aug-12 06:21N 60°01' E 029°23'0 0.0
2015-Aug-12 05:28N 60°01' E 029°23'0 0.0
2015-Aug-12 04:31N 60°01' E 029°23'0 0.0
2015-Aug-12 02:27N 60°01' E 029°23'0 0.0
2015-Aug-12 00:31N 60°01' E 029°23'0 0.0
2015-Aug-11 23:17N 60°01' E 029°23'0 0.0
2015-Aug-11 22:32N 60°01' E 029°23'0 0.0
2015-Aug-11 21:33N 60°01' E 029°23'0 0.0
2015-Aug-11 06:22N 60°01' E 029°23'0 0.0
2015-Aug-11 05:11N 60°01' E 029°23'0 0.0
2015-Aug-11 04:17N 60°01' E 029°23'0 0.0
2015-Aug-11 03:33N 60°01' E 029°23'0 0.0
2015-Aug-11 02:33N 60°01' E 029°23'0 0.0
2015-Aug-11 01:31N 60°01' E 029°23'0 0.0
2015-Aug-11 00:32N 60°01' E 029°23'0 0.0
2015-Aug-10 23:33N 60°01' E 029°23'0 0.0
2015-Aug-10 22:12N 60°01' E 029°23'0 0.0
2015-Aug-10 21:28N 60°01' E 029°23'0 0.0
2015-Aug-10 08:33N 60°01' E 029°23'0 0.0
2015-Aug-10 07:31N 60°01' E 029°23'0 0.0
2015-Aug-10 04:33N 60°01' E 029°23'0 0.0
2015-Aug-10 03:31N 60°01' E 029°23'  

Dump ship's entire track history